Amasa, Michigan
Current Conditions -  °F | °C
As of 3:54 AM on Sunday 23 Nov 2014 (Local Time) from KIMT Reporting Station
Moderate Fog Moderate Fog  
Wind Chill: -2°   Ceiling: 100
Heat Index:   Visibility: 0.25mi
Dew Point:   Wind: 7mph
Humidity: 96%   Direction: 140°SE
Pressure: 29.6"   Gusts: NA
Location:  46.23°N, 88.45°W
Report Text: KIMT 230954Z AUTO 14006KT 1/4SM FG VV001 01/01 A2960 RMK AO2 SLP037 T00110006
Loading
Personal Weather Stations






























Interactive Weather Map New forecast layout! Learn more

10-Day Weather Forecast

Advertisements
Track Severe Weather on mobile